Maldives Meteorological Service

SYNOP

Station Code SYNOP
43555
AAXX 06094 43555 42460 82514 10294 20253 30067 40069 8397/ 333 58009 82817 81918 88461=
43533
AAXX 06094 43533 42462 82709 10294 20269 30065 40067 81247 333 58012 81818 88274=
43577
AAXX 06094 43577 42462 71810 10292 20246 30072 40074 8227/ 333 58003 82818 87362=
43588
AAXX 06094 43588 42460 71611 10305 20252 30074 40075 8223/ 333 58011 82818 87362=
43599
AAXX 06094 43599 42460 81812 10300 20253 30077 40079 82237 333 58010 83817 81918 88275=
Last Updated : 2020-08-06 13:59:28